Startpagina
METAR-TAF:

METAR-TAF

Vliegvelden :

Turijn, Italië

breedte: 45-05-20N, lengte: 007-36-20E, hoogte: 288 m

Actueel weer

Dit bericht is 4 uur en het 45 minuten geleden gemaakt, om 15:50 UTC
Weinig wind
Temperatuur 14°C
Vochtigheid 58%
Druk 1023 hPa
Zicht: 8000 m

METAR: LIMA 231550Z 00000KT 8000 NSC 14/06 Q1023

Tijdstip: 21:35 (20:35 UTC)


TAF: ontbreekt

Waarnemingen en weersverwachtingen van meer dan 4000 vliegvelden (METAR en TAF).

De beschikbare stations zijn de gele en rode punten op de kaart.

Ga met uw muis naar het station om de naam te zien.

Klik dan om waarnemingen en weersverwachtingen te zien.

kaart wijzigen: klik op de groene knoppen met een zwart kruis om in te zoomen, op de groene knop met een streepje om uit te zoomen of op de groene pijlen voor aangrenzende kaarten.


METAR-TAF: